Time;durP1;ratioP1;P1;durP2;ratioP2;P2;SDS_P1;SDS_P2;PMS_P1;PMS_P2;Temp;Humidity;BMP_temperature;BMP_pressure;BME280_temperature;BME280_humidity;BME280_pressure;Samples;Min_cycle;Max_cycle;Signal;HPM_P1;HPM_P2
2023/01/09 00:00:23;;;;;;;;;;;9.20;99.90;;;;;;7343774;19;109489;-90
2023/01/09 00:02:50;;;;;;;;;;;9.20;99.90;;;;;;7344132;19;108820;-90
2023/01/09 00:05:17;;;;;;;;;;;9.10;99.90;;;;;;7347423;19;109730;-91
2023/01/09 00:07:44;;;;;;;;;;;9.10;99.90;;;;;;7345624;19;110920;-91
2023/01/09 00:10:11;;;;;;;;;;;9.10;99.90;;;;;;7355628;19;109065;-91
2023/01/09 00:12:38;;;;;;;;;;;9.00;99.90;;;;;;7349814;19;112015;-90
2023/01/09 00:15:06;;;;;;;;;;;9.00;99.90;;;;;;7347344;19;108197;-90
2023/01/09 00:17:33;;;;;;;;;;;9.00;99.90;;;;;;7342954;19;112208;-90
2023/01/09 00:20:00;;;;;;;;;;;9.00;99.90;;;;;;7342369;19;111605;-91
2023/01/09 00:22:27;;;;;;;;;;;9.00;99.90;;;;;;7347083;19;108531;-91
2023/01/09 00:24:54;;;;;;;;;;;9.00;99.90;;;;;;7342197;19;110996;-91
2023/01/09 00:27:21;;;;;;;;;;;8.90;99.90;;;;;;7342469;19;110113;-90
2023/01/09 00:29:48;;;;;;;;;;;8.90;99.90;;;;;;7342316;19;108646;-90
2023/01/09 00:32:15;;;;;;;;;;;8.90;99.90;;;;;;7348211;19;109348;-92
2023/01/09 00:34:42;;;;;;;;;;;8.90;99.90;;;;;;7338816;19;108552;-91
2023/01/09 00:37:12;;;;;;;;;;;8.90;99.90;;;;;;7341490;19;112348;-90
2023/01/09 00:39:39;;;;;;;;;;;8.90;99.90;;;;;;7340569;19;111773;-91
2023/01/09 00:42:09;;;;;;;;;;;8.80;99.90;;;;;;7342279;19;108394;-91
2023/01/09 00:44:38;;;;;;;;;;;8.80;99.90;;;;;;7341766;19;111532;-91
2023/01/09 00:47:09;;;;;;;;;;;8.80;99.90;;;;;;7345777;19;112748;-90
2023/01/09 00:49:36;;;;;;;;;;;8.80;99.90;;;;;;7342110;19;108596;-90
2023/01/09 00:52:05;;;;;;;;;;;8.80;99.90;;;;;;7344801;19;111910;-89
2023/01/09 00:54:32;;;;;;;;;;;8.70;99.90;;;;;;7346329;19;112877;-91
2023/01/09 00:56:59;;;;;;;;;;;8.70;99.90;;;;;;7342596;19;109067;-91
2023/01/09 00:59:26;;;;;;;;;;;8.70;99.90;;;;;;7341592;19;110066;-91
2023/01/09 01:01:53;;;;;;;;;;;8.70;99.90;;;;;;7342440;19;108774;-91
2023/01/09 01:09:52;;;;;;;;;;;8.60;99.90;;;;;;7342169;19;109357;-90
2023/01/09 01:12:19;;;;;;;;;;;8.60;99.90;;;;;;7342602;19;112541;-90
2023/01/09 01:14:45;;;;;;;;;;;8.50;99.90;;;;;;7347460;19;113756;-91
2023/01/09 01:17:12;;;;;;;;;;;8.50;99.90;;;;;;7356285;19;108400;-90
2023/01/09 01:19:40;;;;;;;;;;;8.50;99.90;;;;;;7348795;19;109200;-91
2023/01/09 01:22:07;;;;;;;;;;;8.40;99.90;;;;;;7348330;19;108870;-91
2023/01/09 01:24:34;;;;;;;;;;;8.40;99.90;;;;;;7347640;19;109786;-91
2023/01/09 01:27:01;;;;;;;;;;;8.40;99.90;;;;;;7347768;19;113218;-91
2023/01/09 01:29:28;;;;;;;;;;;8.30;99.90;;;;;;7347601;19;108992;-90
2023/01/09 01:31:55;;;;;;;;;;;8.30;99.90;;;;;;7348290;19;108882;-90
2023/01/09 01:34:22;;;;;;;;;;;8.30;99.90;;;;;;7348027;19;112557;-90
2023/01/09 01:36:49;;;;;;;;;;;8.30;99.90;;;;;;7349055;19;108948;-90
2023/01/09 01:39:16;;;;;;;;;;;8.30;99.90;;;;;;7351879;19;109615;-90
2023/01/09 01:41:43;;;;;;;;;;;8.30;99.90;;;;;;7351461;19;108329;-91
2023/01/09 01:44:29;;;;;;;;;;;8.20;99.90;;;;;;7348327;19;109001;-90
2023/01/09 01:46:56;;;;;;;;;;;8.20;99.90;;;;;;7347101;19;112832;-91
2023/01/09 01:49:23;;;;;;;;;;;8.20;99.90;;;;;;7348284;19;108824;-90
2023/01/09 01:51:51;;;;;;;;;;;8.20;99.90;;;;;;7349999;19;109181;-91
2023/01/09 01:54:20;;;;;;;;;;;8.20;99.90;;;;;;7346647;19;113223;-90
2023/01/09 01:56:49;;;;;;;;;;;8.20;99.90;;;;;;7349083;19;108639;-90
2023/01/09 01:59:19;;;;;;;;;;;8.20;99.90;;;;;;7351081;19;108885;-90
2023/01/09 02:01:47;;;;;;;;;;;8.10;99.90;;;;;;7347801;19;108371;-90
2023/01/09 02:04:15;;;;;;;;;;;8.10;99.90;;;;;;7348150;19;112055;-91
2023/01/09 02:06:43;;;;;;;;;;;8.10;99.90;;;;;;7349690;19;110631;-90
2023/01/09 02:09:13;;;;;;;;;;;8.10;99.90;;;;;;7347688;19;109841;-91
2023/01/09 02:11:44;;;;;;;;;;;8.10;99.90;;;;;;7349997;19;109652;-91
2023/01/09 02:14:12;;;;;;;;;;;8.00;99.90;;;;;;7345840;19;112900;-89
2023/01/09 02:16:58;;;;;;;;;;;8.10;99.90;;;;;;7347995;19;108752;-90
2023/01/09 02:19:36;;;;;;;;;;;8.10;99.90;;;;;;7348873;19;108538;-91
2023/01/09 02:22:11;;;;;;;;;;;8.00;99.90;;;;;;7352348;19;110406;-91
2023/01/09 02:24:44;;;;;;;;;;;8.00;99.90;;;;;;7345851;19;111784;-91
2023/01/09 02:27:17;;;;;;;;;;;8.00;99.90;;;;;;7347836;19;110528;-90
2023/01/09 02:30:04;;;;;;;;;;;8.00;99.90;;;;;;7346726;19;108591;-91
2023/01/09 02:32:50;;;;;;;;;;;8.00;99.90;;;;;;7346206;19;109045;-91
2023/01/09 02:35:28;;;;;;;;;;;8.00;99.90;;;;;;7346864;19;110006;-89
2023/01/09 02:38:00;;;;;;;;;;;8.00;99.90;;;;;;7347327;19;108503;-90
2023/01/09 02:40:49;;;;;;;;;;;8.00;99.90;;;;;;7347490;19;109027;-91
2023/01/09 02:43:16;;;;;;;;;;;8.00;99.90;;;;;;7345271;19;108636;-91
2023/01/09 02:45:42;;;;;;;;;;;8.00;99.90;;;;;;7348554;19;109827;-90
2023/01/09 02:48:10;;;;;;;;;;;8.00;99.90;;;;;;7344915;19;113662;-91
2023/01/09 02:50:56;;;;;;;;;;;8.00;99.90;;;;;;7348138;19;108401;-91
2023/01/09 02:53:43;;;;;;;;;;;7.90;99.90;;;;;;7345789;19;112976;-91
2023/01/09 02:56:10;;;;;;;;;;;8.00;99.90;;;;;;7347250;19;113090;-90
2023/01/09 02:58:40;;;;;;;;;;;8.00;99.90;;;;;;7344570;19;108544;-91
2023/01/09 03:01:22;;;;;;;;;;;8.00;99.90;;;;;;7345515;19;110148;-91
2023/01/09 03:03:58;;;;;;;;;;;8.00;99.90;;;;;;7344934;19;111659;-91
2023/01/09 03:06:51;;;;;;;;;;;8.00;99.90;;;;;;7345948;19;109033;-90
2023/01/09 03:09:23;;;;;;;;;;;8.10;99.90;;;;;;7350976;19;109500;-90
2023/01/09 03:12:11;;;;;;;;;;;8.10;99.90;;;;;;7347342;19;108674;-91
2023/01/09 03:14:42;;;;;;;;;;;8.00;99.90;;;;;;7344685;19;108911;-91
2023/01/09 03:17:11;;;;;;;;;;;8.10;99.90;;;;;;7345696;19;110462;-92
2023/01/09 03:19:39;;;;;;;;;;;8.10;99.90;;;;;;7345135;19;108488;-90
2023/01/09 03:22:07;;;;;;;;;;;8.10;99.90;;;;;;7347795;19;109144;-90
2023/01/09 03:24:34;;;;;;;;;;;8.20;99.90;;;;;;7345369;19;111762;-91
2023/01/09 03:27:01;;;;;;;;;;;8.20;99.90;;;;;;7345297;19;108391;-91
2023/01/09 03:29:28;;;;;;;;;;;8.20;99.90;;;;;;7343764;19;111231;-91
2023/01/09 03:31:55;;;;;;;;;;;8.20;99.90;;;;;;7348929;19;111012;-91
2023/01/09 03:34:22;;;;;;;;;;;8.20;99.90;;;;;;7344320;19;109771;-93
2023/01/09 03:36:49;;;;;;;;;;;8.30;99.90;;;;;;7345672;19;109161;-92
2023/01/09 03:39:16;;;;;;;;;;;8.30;99.90;;;;;;7344655;19;108616;-92
2023/01/09 03:41:43;;;;;;;;;;;8.30;99.90;;;;;;7347535;19;110574;-92
2023/01/09 03:44:10;;;;;;;;;;;8.30;99.90;;;;;;7345053;19;110652;-91
2023/01/09 03:46:37;;;;;;;;;;;8.30;99.90;;;;;;7344158;19;108732;-91
2023/01/09 03:49:04;;;;;;;;;;;8.40;99.90;;;;;;7345635;19;108623;-92
2023/01/09 03:51:31;;;;;;;;;;;8.30;99.90;;;;;;7343722;19;110274;-91
2023/01/09 03:53:58;;;;;;;;;;;8.40;99.90;;;;;;7349786;19;108420;-91
2023/01/09 03:56:25;;;;;;;;;;;8.40;99.90;;;;;;7345584;19;110311;-91
2023/01/09 03:58:52;;;;;;;;;;;8.40;99.90;;;;;;7344430;19;109987;-91
2023/01/09 04:01:19;;;;;;;;;;;8.50;99.90;;;;;;7341511;19;109192;-89
2023/01/09 04:03:46;;;;;;;;;;;8.50;99.90;;;;;;7340277;19;108781;-89
2023/01/09 04:06:13;;;;;;;;;;;8.50;99.90;;;;;;7342414;19;108534;-89
2023/01/09 04:08:40;;;;;;;;;;;8.50;99.90;;;;;;7343231;19;109362;-90
2023/01/09 04:11:07;;;;;;;;;;;8.60;99.90;;;;;;7342595;19;110502;-90
2023/01/09 04:13:34;;;;;;;;;;;8.60;99.90;;;;;;7347486;19;108747;-90
2023/01/09 04:16:01;;;;;;;;;;;8.60;99.90;;;;;;7344491;19;110015;-91
2023/01/09 04:18:28;;;;;;;;;;;8.60;99.90;;;;;;7342077;19;110659;-90
2023/01/09 04:20:55;;;;;;;;;;;8.60;99.90;;;;;;7345516;19;110359;-90
2023/01/09 04:23:22;;;;;;;;;;;8.70;99.90;;;;;;7341527;19;110584;-90
2023/01/09 04:25:49;;;;;;;;;;;8.70;99.90;;;;;;7343999;19;108411;-89
2023/01/09 04:28:16;;;;;;;;;;;8.70;99.90;;;;;;7343847;19;108963;-90
2023/01/09 04:30:43;;;;;;;;;;;8.70;99.90;;;;;;7343404;19;112746;-90
2023/01/09 04:33:10;;;;;;;;;;;8.70;99.90;;;;;;7342226;19;108753;-91
2023/01/09 04:35:37;;;;;;;;;;;8.80;99.90;;;;;;7347712;19;111994;-91
2023/01/09 04:38:04;;;;;;;;;;;8.80;99.90;;;;;;7342956;19;108363;-91
2023/01/09 04:40:31;;;;;;;;;;;8.80;99.90;;;;;;7341384;19;109802;-89
2023/01/09 04:42:58;;;;;;;;;;;8.80;99.90;;;;;;7344047;19;109275;-91
2023/01/09 04:45:25;;;;;;;;;;;8.80;99.90;;;;;;7342987;19;108550;-89
2023/01/09 04:47:52;;;;;;;;;;;8.80;99.90;;;;;;7341609;19;108466;-91
2023/01/09 04:50:18;;;;;;;;;;;8.90;99.90;;;;;;7341957;19;112626;-90
2023/01/09 04:52:45;;;;;;;;;;;8.90;99.90;;;;;;7343263;19;108807;-90
2023/01/09 04:55:12;;;;;;;;;;;8.90;99.90;;;;;;7342624;19;110851;-90
2023/01/09 04:57:40;;;;;;;;;;;8.90;99.90;;;;;;7347561;19;110052;-91
2023/01/09 05:00:11;;;;;;;;;;;9.00;99.90;;;;;;7344260;19;109129;-91
2023/01/09 05:02:38;;;;;;;;;;;8.90;99.90;;;;;;7341214;19;113048;-92
2023/01/09 05:05:06;;;;;;;;;;;9.00;99.90;;;;;;7343003;19;108498;-91
2023/01/09 05:07:36;;;;;;;;;;;9.00;99.90;;;;;;7340702;19;109626;-91
2023/01/09 05:10:04;;;;;;;;;;;9.00;99.90;;;;;;7342738;19;113988;-91
2023/01/09 05:12:33;;;;;;;;;;;9.10;99.90;;;;;;7342918;19;108416;-90
2023/01/09 05:15:00;;;;;;;;;;;9.10;99.90;;;;;;7342635;19;109487;-91
2023/01/09 05:17:27;;;;;;;;;;;9.10;99.90;;;;;;7340197;19;110607;-89
2023/01/09 05:19:54;;;;;;;;;;;9.10;99.90;;;;;;7346708;19;108383;-90
2023/01/09 05:22:21;;;;;;;;;;;9.10;99.90;;;;;;7340752;19;112117;-90
2023/01/09 05:24:48;;;;;;;;;;;9.10;99.90;;;;;;7340631;19;109401;-90
2023/01/09 05:27:15;;;;;;;;;;;9.10;99.90;;;;;;7342476;19;108517;-91
2023/01/09 05:29:42;;;;;;;;;;;9.20;99.90;;;;;;7343280;19;109279;-91
2023/01/09 05:32:09;;;;;;;;;;;9.20;99.90;;;;;;7341010;19;108508;-91
2023/01/09 05:34:36;;;;;;;;;;;9.20;99.90;;;;;;7341000;19;109529;-91
2023/01/09 05:37:03;;;;;;;;;;;9.20;99.90;;;;;;7340987;19;110798;-92
2023/01/09 05:39:30;;;;;;;;;;;9.20;99.90;;;;;;7340334;19;108129;-92
2023/01/09 05:41:57;;;;;;;;;;;9.30;99.90;;;;;;7346987;19;110596;-91
2023/01/09 05:44:23;;;;;;;;;;;9.30;99.90;;;;;;7342353;19;108687;-92
2023/01/09 05:46:50;;;;;;;;;;;9.30;99.90;;;;;;7341313;19;109370;-91
2023/01/09 05:49:17;;;;;;;;;;;9.30;99.90;;;;;;7343159;19;110509;-90
2023/01/09 05:51:44;;;;;;;;;;;9.40;99.90;;;;;;7343910;19;108719;-91
2023/01/09 05:54:11;;;;;;;;;;;9.40;99.90;;;;;;7341328;19;112033;-91
2023/01/09 05:56:38;;;;;;;;;;;9.30;99.90;;;;;;7340024;19;111566;-90
2023/01/09 05:59:05;;;;;;;;;;;9.30;99.90;;;;;;7345720;19;108448;-91
2023/01/09 06:01:32;;;;;;;;;;;9.30;99.90;;;;;;7347382;19;110032;-91
2023/01/09 06:03:59;;;;;;;;;;;9.40;99.90;;;;;;7353927;19;112815;-92
2023/01/09 06:06:26;;;;;;;;;;;9.40;99.90;;;;;;7347947;19;112605;-90
2023/01/09 06:08:53;;;;;;;;;;;9.40;99.90;;;;;;7348396;19;112492;-91
2023/01/09 06:11:20;;;;;;;;;;;9.50;99.90;;;;;;7346544;19;108606;-92
2023/01/09 06:13:47;;;;;;;;;;;9.40;99.90;;;;;;7348480;19;109590;-91
2023/01/09 06:16:14;;;;;;;;;;;9.40;99.90;;;;;;7344268;19;110505;-90
2023/01/09 06:18:41;;;;;;;;;;;9.40;99.90;;;;;;7347225;19;108225;-90
2023/01/09 06:21:08;;;;;;;;;;;9.40;99.90;;;;;;7345740;19;109392;-91
2023/01/09 06:23:35;;;;;;;;;;;9.40;99.90;;;;;;7350745;19;112437;-92
2023/01/09 06:26:02;;;;;;;;;;;9.40;99.90;;;;;;7348173;19;109688;-91
2023/01/09 06:28:29;;;;;;;;;;;9.40;99.90;;;;;;7343584;19;110019;-93
2023/01/09 06:30:56;;;;;;;;;;;9.40;99.90;;;;;;7346335;19;108460;-91
2023/01/09 06:33:23;;;;;;;;;;;9.40;99.90;;;;;;7345389;19;111411;-91
2023/01/09 06:35:50;;;;;;;;;;;9.40;99.90;;;;;;7345104;19;110359;-91
2023/01/09 06:38:16;;;;;;;;;;;9.40;99.90;;;;;;7343871;19;109706;-92
2023/01/09 06:40:44;;;;;;;;;;;9.40;99.90;;;;;;7345616;19;110926;-91
2023/01/09 06:43:11;;;;;;;;;;;9.40;99.90;;;;;;7345704;19;110421;-90
2023/01/09 06:45:38;;;;;;;;;;;9.30;99.90;;;;;;7351095;19;108451;-91
2023/01/09 06:48:05;;;;;;;;;;;9.30;99.90;;;;;;7345127;19;110355;-91
2023/01/09 06:50:32;;;;;;;;;;;9.30;99.90;;;;;;7343388;19;108563;-91
2023/01/09 06:52:59;;;;;;;;;;;9.30;99.90;;;;;;7346001;19;110664;-91
2023/01/09 06:55:27;;;;;;;;;;;9.30;99.90;;;;;;7344926;19;110351;-91
2023/01/09 06:57:54;;;;;;;;;;;9.30;99.90;;;;;;7346651;19;108543;-91
2023/01/09 07:00:21;;;;;;;;;;;9.30;99.90;;;;;;7343968;19;109614;-91
2023/01/09 07:02:48;;;;;;;;;;;9.30;99.90;;;;;;7344627;19;112819;-90
2023/01/09 07:05:15;;;;;;;;;;;9.30;99.90;;;;;;7347165;19;108538;-94
2023/01/09 07:07:42;;;;;;;;;;;9.30;99.90;;;;;;7353965;19;111982;-92
2023/01/09 07:10:09;;;;;;;;;;;9.30;99.90;;;;;;7343853;19;108700;-93
2023/01/09 07:12:36;;;;;;;;;;;9.30;99.90;;;;;;7345146;19;111078;-91
2023/01/09 07:15:04;;;;;;;;;;;9.30;99.90;;;;;;7346880;19;111873;-91
2023/01/09 07:17:31;;;;;;;;;;;9.30;99.90;;;;;;7345168;19;108685;-92
2023/01/09 07:19:59;;;;;;;;;;;9.30;99.90;;;;;;7348286;19;109323;-92
2023/01/09 07:22:26;;;;;;;;;;;9.30;99.90;;;;;;7349099;19;109115;-92
2023/01/09 07:24:53;;;;;;;;;;;9.40;99.90;;;;;;7349472;19;108839;-92
2023/01/09 07:27:21;;;;;;;;;;;9.40;99.90;;;;;;7347973;19;111840;-92
2023/01/09 07:29:49;;;;;;;;;;;9.40;99.90;;;;;;7354598;19;109649;-92
2023/01/09 07:32:16;;;;;;;;;;;9.40;99.90;;;;;;7346506;19;108526;-91
2023/01/09 07:34:43;;;;;;;;;;;9.40;99.90;;;;;;7349925;19;111353;-91
2023/01/09 07:37:10;;;;;;;;;;;9.40;99.90;;;;;;7347021;19;108643;-92
2023/01/09 07:39:37;;;;;;;;;;;9.40;99.90;;;;;;7346599;19;108336;-92
2023/01/09 07:42:03;;;;;;;;;;;9.40;99.90;;;;;;7346005;19;113597;-91
2023/01/09 07:44:30;;;;;;;;;;;9.40;99.90;;;;;;7345474;19;108975;-92
2023/01/09 07:46:57;;;;;;;;;;;9.40;99.90;;;;;;7349038;19;110903;-92
2023/01/09 07:49:24;;;;;;;;;;;9.40;99.90;;;;;;7345586;19;112796;-92
2023/01/09 07:51:52;;;;;;;;;;;9.40;99.90;;;;;;7353667;19;108540;-92
2023/01/09 07:54:19;;;;;;;;;;;9.40;99.90;;;;;;7345340;19;111626;-92
2023/01/09 07:56:46;;;;;;;;;;;9.40;99.90;;;;;;7348515;19;108479;-92
2023/01/09 07:59:13;;;;;;;;;;;9.40;99.90;;;;;;7344572;19;111872;-92
2023/01/09 08:01:40;;;;;;;;;;;9.40;99.90;;;;;;7347649;19;113158;-93
2023/01/09 08:04:08;;;;;;;;;;;9.40;99.90;;;;;;7346843;19;108572;-92
2023/01/09 08:06:34;;;;;;;;;;;9.40;99.90;;;;;;7346649;19;108922;-93
2023/01/09 08:09:01;;;;;;;;;;;9.40;99.90;;;;;;7347941;19;113355;-92
2023/01/09 08:11:28;;;;;;;;;;;9.40;99.90;;;;;;7347414;19;110024;-91
2023/01/09 08:13:55;;;;;;;;;;;9.40;99.90;;;;;;7351836;19;109037;-91
2023/01/09 08:16:22;;;;;;;;;;;9.40;99.90;;;;;;7347243;19;108466;-90
2023/01/09 08:18:49;;;;;;;;;;;9.40;99.90;;;;;;7347972;19;110831;-92
2023/01/09 08:21:16;;;;;;;;;;;9.40;99.90;;;;;;7346703;19;112824;-91
2023/01/09 08:23:44;;;;;;;;;;;9.40;99.90;;;;;;7346688;19;108372;-93
2023/01/09 08:26:11;;;;;;;;;;;9.40;99.90;;;;;;7345028;19;112010;-92
2023/01/09 08:28:38;;;;;;;;;;;9.40;99.90;;;;;;7345040;19;112994;-91
2023/01/09 08:31:05;;;;;;;;;;;9.50;99.90;;;;;;7346380;19;108553;-91
2023/01/09 08:33:32;;;;;;;;;;;9.40;99.90;;;;;;7348384;19;111919;-92
2023/01/09 08:35:59;;;;;;;;;;;9.50;99.90;;;;;;7346833;19;109500;-92
2023/01/09 08:38:26;;;;;;;;;;;9.50;99.90;;;;;;7347617;19;108266;-91
2023/01/09 08:40:53;;;;;;;;;;;9.50;99.90;;;;;;7345497;19;110563;-92
2023/01/09 08:49:02;;;;;;;;;;;9.50;99.90;;;;;;7346696;19;112108;-93
2023/01/09 08:51:28;;;;;;;;;;;9.50;99.90;;;;;;7347812;19;109120;-91
2023/01/09 08:53:55;;;;;;;;;;;9.50;99.90;;;;;;7346289;19;110591;-93
2023/01/09 08:56:22;;;;;;;;;;;9.50;99.90;;;;;;7351744;19;111609;-92
2023/01/09 08:58:49;;;;;;;;;;;9.50;99.90;;;;;;7347139;19;111583;-93
2023/01/09 09:01:16;;;;;;;;;;;9.50;99.90;;;;;;7344936;19;111807;-91
2023/01/09 09:03:43;;;;;;;;;;;9.50;99.90;;;;;;7344023;19;108797;-95
2023/01/09 09:06:10;;;;;;;;;;;9.50;99.90;;;;;;7341648;19;110539;-93
2023/01/09 09:08:37;;;;;;;;;;;9.50;99.90;;;;;;7344325;19;112713;-90
2023/01/09 09:11:04;;;;;;;;;;;9.50;99.90;;;;;;7347894;19;108363;-92
2023/01/09 09:13:31;;;;;;;;;;;9.50;99.90;;;;;;7343737;19;110278;-92
2023/01/09 09:15:58;;;;;;;;;;;9.40;99.90;;;;;;7344516;19;111356;-92
2023/01/09 09:18:25;;;;;;;;;;;9.30;99.90;;;;;;7351395;19;108618;-93
2023/01/09 09:20:52;;;;;;;;;;;9.40;99.90;;;;;;7347267;19;110236;-94
2023/01/09 09:23:21;;;;;;;;;;;9.40;99.90;;;;;;7344968;19;108948;-92
2023/01/09 09:25:48;;;;;;;;;;;9.30;99.90;;;;;;7345488;19;110431;-94
2023/01/09 09:28:15;;;;;;;;;;;9.30;99.90;;;;;;7344156;19;111565;-93
2023/01/09 09:30:42;;;;;;;;;;;9.30;99.90;;;;;;7345850;19;108119;-93
2023/01/09 09:33:09;;;;;;;;;;;9.20;99.90;;;;;;7350146;19;110720;-93
2023/01/09 09:35:36;;;;;;;;;;;9.30;99.90;;;;;;7351510;19;110303;-93
2023/01/09 09:38:03;;;;;;;;;;;9.30;99.90;;;;;;7351862;19;108265;-93
2023/01/09 09:40:50;;;;;;;;;;;9.30;99.90;;;;;;7355532;19;109782;-93
2023/01/09 09:46:06;;;;;;;;;;;9.30;99.90;;;;;;7355446;19;108508;-92
2023/01/09 09:48:47;;;;;;;;;;;9.40;99.90;;;;;;7350141;19;110193;-95
2023/01/09 09:51:14;;;;;;;;;;;9.30;99.90;;;;;;7354112;19;109371;-94
2023/01/09 09:53:50;;;;;;;;;;;9.30;99.90;;;;;;7354134;19;111765;-93
2023/01/09 09:56:19;;;;;;;;;;;9.30;99.90;;;;;;7350643;19;111996;-93
2023/01/09 09:58:52;;;;;;;;;;;9.40;99.90;;;;;;7354468;19;108494;-94
2023/01/09 10:01:25;;;;;;;;;;;9.30;99.90;;;;;;7350929;19;109027;-93
2023/01/09 10:03:54;;;;;;;;;;;9.40;99.90;;;;;;7357348;19;113885;-93
2023/01/09 10:06:29;;;;;;;;;;;9.40;99.90;;;;;;7350848;19;110593;-94
2023/01/09 10:09:05;;;;;;;;;;;9.40;99.90;;;;;;7344975;19;110453;-93
2023/01/09 10:11:38;;;;;;;;;;;9.40;99.90;;;;;;7341183;19;108234;-92
2023/01/09 10:14:05;;;;;;;;;;;9.40;99.90;;;;;;7341851;19;110416;-93
2023/01/09 10:16:44;;;;;;;;;;;9.40;99.90;;;;;;7343083;19;110549;-93
2023/01/09 10:19:33;;;;;;;;;;;9.40;99.90;;;;;;7343692;19;108706;-92
2023/01/09 10:22:03;;;;;;;;;;;9.30;99.90;;;;;;7344329;19;111766;-92
2023/01/09 10:24:49;;;;;;;;;;;9.30;99.90;;;;;;7343690;19;111978;-93
2023/01/09 10:27:22;;;;;;;;;;;9.40;99.90;;;;;;7347860;19;108874;-93
2023/01/09 10:29:59;;;;;;;;;;;9.40;99.90;;;;;;7342623;19;111618;-92
2023/01/09 10:32:34;;;;;;;;;;;9.40;99.90;;;;;;7341914;19;109010;-93
2023/01/09 10:35:01;;;;;;;;;;;9.40;99.90;;;;;;7345076;19;109605;-94
2023/01/09 10:37:31;;;;;;;;;;;9.40;99.90;;;;;;7340947;19;110571;-92
2023/01/09 10:40:01;;;;;;;;;;;9.40;99.90;;;;;;7346079;19;108790;-93
2023/01/09 10:42:35;;;;;;;;;;;9.50;99.90;;;;;;7343097;19;111943;-92
2023/01/09 10:45:17;;;;;;;;;;;9.60;99.90;;;;;;7341083;19;111673;-93
2023/01/09 10:47:45;;;;;;;;;;;9.60;99.90;;;;;;7348803;19;108771;-93
2023/01/09 10:50:21;;;;;;;;;;;9.50;99.90;;;;;;7342435;19;112898;-93
2023/01/09 10:52:49;;;;;;;;;;;9.40;99.90;;;;;;7343577;19;108467;-93
2023/01/09 10:55:18;;;;;;;;;;;9.50;99.90;;;;;;7344767;19;111769;-93
2023/01/09 10:57:51;;;;;;;;;;;9.50;99.90;;;;;;7342115;19;111564;-92
2023/01/09 11:00:20;;;;;;;;;;;9.50;99.90;;;;;;7342261;19;108442;-93
2023/01/09 11:02:50;;;;;;;;;;;9.50;99.90;;;;;;7343726;19;111590;-93
2023/01/09 11:05:19;;;;;;;;;;;9.50;99.90;;;;;;7341352;19;111585;-94
2023/01/09 11:07:54;;;;;;;;;;;9.50;99.90;;;;;;7342428;19;108467;-93
2023/01/09 11:10:21;;;;;;;;;;;9.50;99.90;;;;;;7347205;19;111693;-93
2023/01/09 11:13:10;;;;;;;;;;;9.50;99.90;;;;;;7344449;19;108410;-93
2023/01/09 11:15:37;;;;;;;;;;;9.50;99.90;;;;;;7341809;19;111702;-92
2023/01/09 11:18:18;;;;;;;;;;;9.60;99.90;;;;;;7341804;19;112262;-92
2023/01/09 11:20:46;;;;;;;;;;;9.60;99.90;;;;;;7343076;19;108457;-92
2023/01/09 11:23:23;;;;;;;;;;;9.60;99.90;;;;;;7342412;19;111857;-93
2023/01/09 11:25:51;;;;;;;;;;;9.70;99.90;;;;;;7342236;19;110761;-93
2023/01/09 11:28:18;;;;;;;;;;;9.70;99.90;;;;;;7343327;19;112862;-92
2023/01/09 11:30:53;;;;;;;;;;;9.80;99.90;;;;;;7342447;19;111996;-92
2023/01/09 11:33:24;;;;;;;;;;;9.80;99.90;;;;;;7346441;19;109362;-93
2023/01/09 11:36:03;;;;;;;;;;;9.90;99.90;;;;;;7342740;19;110811;-94
2023/01/09 11:38:32;;;;;;;;;;;10.00;99.90;;;;;;7340772;19;113251;-94
2023/01/09 11:41:03;;;;;;;;;;;10.10;99.90;;;;;;7341453;19;108570;-92
2023/01/09 11:43:32;;;;;;;;;;;10.10;99.90;;;;;;7340719;19;110685;-93
2023/01/09 11:46:01;;;;;;;;;;;10.20;99.90;;;;;;7343181;19;111171;-94
2023/01/09 11:48:36;;;;;;;;;;;10.30;99.90;;;;;;7344102;19;109515;-93
2023/01/09 11:51:06;;;;;;;;;;;10.30;99.90;;;;;;7345165;19;109192;-92
2023/01/09 11:53:42;;;;;;;;;;;10.30;99.90;;;;;;7343524;19;112869;-92
2023/01/09 11:56:11;;;;;;;;;;;10.30;99.90;;;;;;7348231;19;108910;-93
2023/01/09 11:58:38;;;;;;;;;;;10.40;99.90;;;;;;7341882;19;114786;-92
2023/01/09 12:01:11;;;;;;;;;;;10.50;99.90;;;;;;7342556;19;108897;-92
2023/01/09 12:03:51;;;;;;;;;;;10.50;99.90;;;;;;7346024;19;109254;-94
2023/01/09 12:06:20;;;;;;;;;;;10.50;99.90;;;;;;7344571;19;113192;-92
2023/01/09 12:08:54;;;;;;;;;;;10.50;99.90;;;;;;7343291;19;108484;-93
2023/01/09 12:11:30;;;;;;;;;;;10.50;99.90;;;;;;7342156;19;111960;-93
2023/01/09 12:14:06;;;;;;;;;;;10.50;99.90;;;;;;7343771;19;112945;-94
2023/01/09 12:16:39;;;;;;;;;;;10.50;99.90;;;;;;7346569;19;108587;-92
2023/01/09 12:19:06;;;;;;;;;;;10.50;99.90;;;;;;7349805;19;109643;-93
2023/01/09 12:21:34;;;;;;;;;;;10.50;99.90;;;;;;7347819;19;108652;-93
2023/01/09 12:24:16;;;;;;;;;;;10.40;99.90;;;;;;7344795;19;111886;-92
2023/01/09 12:26:47;;;;;;;;;;;10.40;99.90;;;;;;7343982;19;109883;-92
2023/01/09 12:29:24;;;;;;;;;;;10.30;99.90;;;;;;7345952;19;108716;-93
2023/01/09 12:31:54;;;;;;;;;;;10.30;99.90;;;;;;7347192;19;112073;-93
2023/01/09 12:34:21;;;;;;;;;;;10.30;99.90;;;;;;7345114;19;111632;-93
2023/01/09 12:36:51;;;;;;;;;;;10.30;99.90;;;;;;7343512;19;108590;-92
2023/01/09 12:39:37;;;;;;;;;;;10.40;99.90;;;;;;7349957;19;112076;-93
2023/01/09 12:42:16;;;;;;;;;;;10.40;99.90;;;;;;7346306;19;108297;-93
2023/01/09 12:44:43;;;;;;;;;;;10.40;99.90;;;;;;7350571;19;110852;-91
2023/01/09 12:47:18;;;;;;;;;;;10.50;99.90;;;;;;7363649;19;111095;-91
2023/01/09 12:49:48;;;;;;;;;;;10.50;99.90;;;;;;7362827;19;108328;-93
2023/01/09 12:52:19;;;;;;;;;;;10.60;99.90;;;;;;7357038;19;111075;-92
2023/01/09 12:54:50;;;;;;;;;;;10.50;99.90;;;;;;7357474;19;111276;-92
2023/01/09 12:57:29;;;;;;;;;;;10.40;99.90;;;;;;7364028;19;108634;-92
2023/01/09 12:59:59;;;;;;;;;;;10.40;99.90;;;;;;7361733;19;109680;-92
2023/01/09 13:02:35;;;;;;;;;;;10.40;99.90;;;;;;7367638;19;111710;-92
2023/01/09 13:05:22;;;;;;;;;;;10.40;99.90;;;;;;7366314;19;109471;-92
2023/01/09 13:07:56;;;;;;;;;;;10.40;99.90;;;;;;7362298;19;111465;-92
2023/01/09 13:10:32;;;;;;;;;;;10.30;99.90;;;;;;7370761;19;108520;-92
2023/01/09 13:13:05;;;;;;;;;;;10.30;99.90;;;;;;7368117;19;111000;-91
2023/01/09 13:15:38;;;;;;;;;;;10.30;99.90;;;;;;7350428;19;113151;-93
2023/01/09 13:18:15;;;;;;;;;;;10.30;99.90;;;;;;7349199;19;108386;-93
2023/01/09 13:20:50;;;;;;;;;;;10.30;99.90;;;;;;7347825;19;109410;-93
2023/01/09 13:23:36;;;;;;;;;;;10.40;99.90;;;;;;7348081;19;112727;-92
2023/01/09 13:26:05;;;;;;;;;;;10.30;99.90;;;;;;7352832;19;108322;-93
2023/01/09 13:28:32;;;;;;;;;;;10.30;99.90;;;;;;7346381;19;110589;-92
2023/01/09 13:31:18;;;;;;;;;;;10.30;99.90;;;;;;7350022;19;108622;-91
2023/01/09 13:33:49;;;;;;;;;;;10.30;99.90;;;;;;7350899;19;111791;-93
2023/01/09 13:36:32;;;;;;;;;;;10.30;99.90;;;;;;7347707;19;112857;-91
2023/01/09 13:39:00;;;;;;;;;;;10.20;99.90;;;;;;7349600;19;108806;-92
2023/01/09 13:44:18;;;;;;;;;;;10.30;99.90;;;;;;7351743;19;113278;-92
2023/01/09 13:46:46;;;;;;;;;;;10.30;99.90;;;;;;7349316;19;108612;-92
2023/01/09 13:49:32;;;;;;;;;;;10.30;99.90;;;;;;7357074;19;111643;-91
2023/01/09 13:52:25;;;;;;;;;;;10.30;99.90;;;;;;7352051;19;108918;-92
2023/01/09 13:54:59;;;;;;;;;;;10.30;99.90;;;;;;7350724;19;108997;-92
2023/01/09 13:57:27;;;;;;;;;;;10.40;99.90;;;;;;7347247;19;111819;-92
2023/01/09 13:59:59;;;;;;;;;;;10.40;99.90;;;;;;7351850;19;108038;-91
2023/01/09 14:02:32;;;;;;;;;;;10.40;99.90;;;;;;7351019;19;108487;-92
2023/01/09 14:05:00;;;;;;;;;;;10.50;99.90;;;;;;7349722;19;113393;-92
2023/01/09 14:07:48;;;;;;;;;;;10.60;99.90;;;;;;7349694;19;108768;-92
2023/01/09 14:10:27;;;;;;;;;;;10.50;99.90;;;;;;7350015;19;109457;-92
2023/01/09 14:12:55;;;;;;;;;;;10.50;99.90;;;;;;7353857;19;111559;-92
2023/01/09 14:15:30;;;;;;;;;;;10.50;99.90;;;;;;7348029;19;112030;-92
2023/01/09 14:17:58;;;;;;;;;;;10.50;99.90;;;;;;7350070;19;112409;-93
2023/01/09 14:20:34;;;;;;;;;;;10.60;99.90;;;;;;7347517;19;108592;-93
2023/01/09 14:23:02;;;;;;;;;;;10.60;99.90;;;;;;7347072;19;111450;-93
2023/01/09 14:25:50;;;;;;;;;;;10.60;99.90;;;;;;7348486;19;110990;-92
2023/01/09 14:28:35;;;;;;;;;;;10.60;99.90;;;;;;7348581;19;108876;-92
2023/01/09 14:31:07;;;;;;;;;;;10.60;99.90;;;;;;7350690;19;109140;-94
2023/01/09 14:33:34;;;;;;;;;;;10.70;99.90;;;;;;7349175;19;112817;-92
2023/01/09 14:36:08;;;;;;;;;;;10.70;99.90;;;;;;7353837;19;108936;-92
2023/01/09 14:38:37;;;;;;;;;;;10.70;99.90;;;;;;7349704;19;112997;-93
2023/01/09 14:41:19;;;;;;;;;;;10.70;99.90;;;;;;7348791;19;113795;-90
2023/01/09 14:43:51;;;;;;;;;;;10.70;99.90;;;;;;7344907;19;108860;-89
2023/01/09 14:46:19;;;;;;;;;;;10.70;99.90;;;;;;7344058;19;110491;-89